Time;durP1;ratioP1;P1;durP2;ratioP2;P2;SDS_P1;SDS_P2;PMS_P1;PMS_P2;Temp;Humidity;BMP_temperature;BMP_pressure;BME280_temperature;BME280_humidity;BME280_pressure;Samples;Min_cycle;Max_cycle;Signal;HPM_P1;HPM_P2
2022/10/27 00:02:01;;;;;;;82.07;39.67;;;10.40;99.90;;;;;;5056214;28;20102;-72
2022/10/27 00:04:27;;;;;;;69.80;36.92;;;10.40;99.90;;;;;;5056731;28;20023;-71
2022/10/27 00:06:53;;;;;;;66.32;35.28;;;10.40;99.90;;;;;;5056566;28;20112;-71
2022/10/27 00:09:19;;;;;;;63.05;34.38;;;10.30;99.90;;;;;;5056491;28;20035;-71
2022/10/27 00:11:45;;;;;;;58.67;32.10;;;10.30;99.90;;;;;;5056528;28;20032;-71
2022/10/27 00:14:11;;;;;;;49.75;28.70;;;10.30;99.90;;;;;;5056540;28;20040;-71
2022/10/27 00:16:37;;;;;;;50.80;28.00;;;10.20;99.90;;;;;;5056455;28;20057;-71
2022/10/27 00:19:03;;;;;;;52.80;26.00;;;10.20;99.90;;;;;;5056426;28;20033;-71
2022/10/27 00:21:29;;;;;;;51.05;27.73;;;10.20;99.90;;;;;;5056389;28;20036;-71
2022/10/27 00:23:55;;;;;;;55.20;29.23;;;10.20;99.90;;;;;;5056245;28;20108;-71
2022/10/27 00:26:21;;;;;;;56.30;28.85;;;10.20;99.90;;;;;;5056257;28;20041;-71
2022/10/27 00:28:47;;;;;;;56.13;28.10;;;10.30;99.90;;;;;;5056316;28;20029;-71
2022/10/27 00:31:19;;;;;;;56.75;28.05;;;10.40;99.90;;;;;;5056272;28;20021;-71
2022/10/27 00:33:47;;;;;;;53.67;27.30;;;10.30;99.90;;;;;;5056094;28;20226;-71
2022/10/27 00:36:15;;;;;;;54.90;28.00;;;10.20;99.90;;;;;;5056511;28;20029;-71
2022/10/27 00:38:41;;;;;;;52.40;26.17;;;10.10;99.90;;;;;;5055979;28;20067;-71
2022/10/27 00:41:25;;;;;;;49.20;25.85;;;10.10;99.90;;;;;;5055963;28;20029;-70
2022/10/27 00:43:51;;;;;;;40.25;22.77;;;10.10;99.90;;;;;;5055754;28;20311;-71
2022/10/27 00:46:43;;;;;;;43.67;23.98;;;10.10;99.90;;;;;;5055932;28;20053;-71
2022/10/27 00:49:12;;;;;;;64.45;30.52;;;10.10;99.90;;;;;;5055645;28;20036;-71
2022/10/27 00:51:45;;;;;;;63.70;29.17;;;10.00;99.90;;;;;;5055782;28;20025;-71
2022/10/27 00:54:13;;;;;;;51.13;26.40;;;10.10;99.90;;;;;;5055838;28;20379;-71
2022/10/27 00:56:41;;;;;;;53.90;25.90;;;10.10;99.90;;;;;;5055552;28;20450;-71
2022/10/27 00:59:07;;;;;;;69.20;30.02;;;10.00;99.90;;;;;;5055559;28;20051;-70
2022/10/27 01:01:34;;;;;;;174.32;56.55;;;10.10;99.90;;;;;;5055332;28;20040;-71
2022/10/27 01:03:59;;;;;;;125.97;45.38;;;10.10;99.90;;;;;;5055618;28;20075;-70
2022/10/27 01:06:26;;;;;;;108.68;42.25;;;10.00;99.90;;;;;;5055509;28;20037;-71
2022/10/27 01:08:52;;;;;;;99.70;36.92;;;10.00;99.90;;;;;;5055390;28;20029;-71
2022/10/27 01:11:18;;;;;;;84.60;35.33;;;10.00;99.90;;;;;;5055438;28;20025;-71
2022/10/27 01:13:44;;;;;;;64.10;29.67;;;9.90;99.90;;;;;;5055467;28;20485;-71
2022/10/27 01:16:55;;;;;;;48.15;23.42;;;9.90;99.90;;;;;;5037481;28;20075;-70
2022/10/27 01:19:50;;;;;;;42.13;22.00;;;9.80;99.90;;;;;;4973490;28;20545;-71
2022/10/27 01:22:35;;;;;;;39.30;21.10;;;9.90;99.90;;;;;;5055428;28;20031;-71
2022/10/27 01:25:20;;;;;;;37.28;21.15;;;9.90;99.90;;;;;;5055128;28;20029;-71
2022/10/27 01:28:16;;;;;;;39.25;20.67;;;9.90;99.90;;;;;;5055117;28;20039;-71
2022/10/27 01:31:13;;;;;;;40.28;19.67;;;9.90;99.90;;;;;;5054963;28;20036;-71
2022/10/27 01:33:53;;;;;;;38.95;20.25;;;9.80;99.90;;;;;;5034942;28;20525;-71
2022/10/27 01:36:36;;;;;;;34.40;21.30;;;9.80;99.90;;;;;;5034945;28;20391;-71
2022/10/27 01:39:15;;;;;;;41.80;20.45;;;9.80;99.90;;;;;;5051192;28;20075;-71
2022/10/27 01:41:48;;;;;;;35.88;19.92;;;9.80;99.90;;;;;;5054935;28;20032;-71
2022/10/27 01:44:21;;;;;;;94.35;33.33;;;9.80;99.90;;;;;;5054960;28;20104;-71
2022/10/27 01:46:48;;;;;;;110.53;41.28;;;9.70;99.90;;;;;;5054710;28;20028;-70
2022/10/27 01:49:14;;;;;;;99.80;38.15;;;9.80;99.90;;;;;;5054756;28;20021;-71
2022/10/27 01:51:40;;;;;;;76.45;32.33;;;9.70;99.90;;;;;;5054660;28;20040;-71
2022/10/27 01:54:06;;;;;;;100.13;37.72;;;9.70;99.90;;;;;;5054677;28;20029;-71
2022/10/27 01:56:44;;;;;;;96.88;33.58;;;9.60;99.90;;;;;;5036629;28;20067;-71
2022/10/27 01:59:32;;;;;;;80.75;32.78;;;9.50;99.90;;;;;;5054478;28;20027;-71
2022/10/27 02:02:31;;;;;;;65.15;27.15;;;9.40;99.90;;;;;;5054256;28;20037;-71
2022/10/27 02:05:05;;;;;;;68.32;30.08;;;9.40;99.90;;;;;;5054640;28;20490;-71
2022/10/27 02:07:51;;;;;;;77.60;29.23;;;9.50;99.90;;;;;;5054515;28;20505;-71
2022/10/27 02:10:28;;;;;;;59.67;27.33;;;9.50;99.90;;;;;;5054208;28;20609;-71
2022/10/27 02:12:55;;;;;;;63.72;25.88;;;9.50;99.90;;;;;;5054455;28;20467;-71
2022/10/27 02:15:38;;;;;;;69.90;26.08;;;9.60;99.90;;;;;;5054566;28;20037;-71
2022/10/27 02:18:13;;;;;;;54.97;25.42;;;9.50;99.90;;;;;;5054222;28;20044;-71
2022/10/27 02:20:42;;;;;;;58.50;25.55;;;9.50;99.90;;;;;;5054562;28;20072;-71
2022/10/27 02:23:15;;;;;;;57.85;25.38;;;9.40;99.90;;;;;;5054193;28;20028;-71
2022/10/27 02:25:55;;;;;;;50.30;24.38;;;9.30;99.90;;;;;;5054197;28;20082;-71
2022/10/27 02:28:28;;;;;;;56.75;25.55;;;9.30;99.90;;;;;;5054234;28;20032;-71
2022/10/27 02:30:57;;;;;;;47.03;22.40;;;9.40;99.90;;;;;;5055029;28;20032;-71
2022/10/27 02:33:24;;;;;;;43.58;21.13;;;9.30;99.90;;;;;;5058291;28;20033;-70
2022/10/27 02:35:51;;;;;;;43.53;21.20;;;9.30;99.90;;;;;;5058672;28;20462;-71
2022/10/27 02:38:17;;;;;;;39.80;20.20;;;9.30;99.90;;;;;;5058290;28;20032;-71
2022/10/27 02:40:43;;;;;;;38.10;19.83;;;9.20;99.90;;;;;;5058267;28;20382;-71
2022/10/27 02:43:09;;;;;;;35.97;19.10;;;9.20;99.90;;;;;;5058290;28;20041;-71
2022/10/27 02:45:35;;;;;;;40.75;20.52;;;9.20;99.90;;;;;;5058265;28;20417;-71
2022/10/27 02:48:00;;;;;;;40.38;21.73;;;9.30;99.90;;;;;;5058294;28;20032;-71
2022/10/27 02:50:26;;;;;;;43.38;21.13;;;9.40;99.90;;;;;;5058271;28;20490;-71
2022/10/27 02:52:52;;;;;;;40.40;21.08;;;9.40;99.90;;;;;;5058090;28;20029;-71
2022/10/27 02:55:18;;;;;;;41.20;21.48;;;9.40;99.90;;;;;;5058095;28;20025;-72
2022/10/27 02:57:45;;;;;;;41.38;21.10;;;9.50;99.90;;;;;;5057932;28;20087;-71
2022/10/27 03:00:12;;;;;;;35.15;18.38;;;9.50;99.90;;;;;;5057614;28;20094;-71
2022/10/27 03:02:38;;;;;;;37.72;17.15;;;9.60;99.90;;;;;;5057696;28;20029;-71
2022/10/27 03:05:04;;;;;;;30.30;16.88;;;9.80;99.90;;;;;;5057909;28;20039;-71
2022/10/27 03:07:30;;;;;;;31.02;16.35;;;9.90;99.90;;;;;;5057797;28;20021;-71
2022/10/27 03:09:56;;;;;;;29.10;16.88;;;9.80;99.90;;;;;;5057728;28;20031;-71
2022/10/27 03:12:22;;;;;;;37.30;16.65;;;9.70;99.90;;;;;;5057788;28;20475;-71
2022/10/27 03:14:48;;;;;;;29.20;15.98;;;9.60;99.90;;;;;;5057702;28;20124;-72
2022/10/27 03:17:14;;;;;;;30.65;16.80;;;9.60;99.90;;;;;;5057643;28;20604;-72
2022/10/27 03:19:39;;;;;;;33.63;16.70;;;9.60;99.90;;;;;;5057841;28;20051;-71
2022/10/27 03:22:05;;;;;;;40.88;19.63;;;9.70;99.90;;;;;;5057616;28;20108;-72
2022/10/27 03:24:31;;;;;;;51.30;26.75;;;9.60;99.90;;;;;;5057418;28;20074;-71
2022/10/27 03:26:58;;;;;;;46.97;23.67;;;9.50;99.90;;;;;;5057480;28;20029;-72
2022/10/27 03:29:24;;;;;;;43.00;21.88;;;9.50;99.90;;;;;;5057729;28;20035;-71
2022/10/27 03:31:50;;;;;;;41.22;20.33;;;9.40;99.90;;;;;;5057220;28;20033;-71
2022/10/27 03:34:16;;;;;;;34.65;19.10;;;9.40;99.90;;;;;;5057206;28;20032;-72
2022/10/27 03:36:41;;;;;;;41.83;18.48;;;9.40;99.90;;;;;;5057282;28;20029;-71
2022/10/27 03:39:07;;;;;;;41.50;18.42;;;9.40;99.90;;;;;;5056846;28;20040;-71
2022/10/27 03:41:33;;;;;;;37.03;16.88;;;9.30;99.90;;;;;;5056685;28;20466;-71
2022/10/27 03:43:59;;;;;;;38.35;17.38;;;9.20;99.90;;;;;;5057199;28;20056;-72
2022/10/27 03:46:25;;;;;;;27.30;15.05;;;9.30;99.90;;;;;;5039359;28;20025;-71
2022/10/27 03:48:53;;;;;;;41.92;17.42;;;9.40;99.90;;;;;;5056994;28;20048;-71
2022/10/27 03:51:19;;;;;;;34.85;16.48;;;9.40;99.90;;;;;;5057352;28;20035;-71
2022/10/27 03:53:45;;;;;;;32.92;17.15;;;9.40;99.90;;;;;;5056925;28;20107;-71
2022/10/27 03:56:12;;;;;;;37.25;18.05;;;9.40;99.90;;;;;;5056810;28;20036;-71
2022/10/27 03:58:38;;;;;;;36.95;19.00;;;9.30;99.90;;;;;;5056790;28;20033;-71
2022/10/27 04:01:05;;;;;;;31.95;17.60;;;9.30;99.90;;;;;;5056337;28;20052;-72
2022/10/27 04:03:31;;;;;;;34.83;18.42;;;9.30;99.90;;;;;;5056715;28;20510;-72
2022/10/27 04:05:57;;;;;;;32.47;18.30;;;9.20;99.90;;;;;;5056758;28;20033;-71
2022/10/27 04:08:23;;;;;;;38.80;19.13;;;9.20;99.90;;;;;;5056780;28;20071;-72
2022/10/27 04:10:49;;;;;;;38.20;18.67;;;9.00;99.90;;;;;;5056479;28;20041;-72
2022/10/27 04:13:15;;;;;;;38.80;19.20;;;9.00;99.90;;;;;;5056550;28;20036;-72
2022/10/27 04:15:41;;;;;;;37.85;17.70;;;9.00;99.90;;;;;;5056495;28;20033;-71
2022/10/27 04:18:08;;;;;;;33.72;16.80;;;9.00;99.90;;;;;;5054925;28;20458;-71
2022/10/27 04:20:34;;;;;;;32.78;16.15;;;9.00;99.90;;;;;;5056335;28;20437;-72
2022/10/27 04:23:00;;;;;;;34.30;17.13;;;8.90;99.90;;;;;;5056757;28;20021;-72
2022/10/27 04:25:26;;;;;;;31.45;17.25;;;8.90;99.90;;;;;;5056304;28;20025;-71
2022/10/27 04:28:06;;;;;;;30.95;16.73;;;8.80;99.90;;;;;;5056302;28;20025;-72
2022/10/27 04:30:33;;;;;;;35.40;17.98;;;8.70;99.90;;;;;;5056448;28;20028;-72
2022/10/27 04:32:59;;;;;;;39.55;18.55;;;8.70;99.90;;;;;;5055984;28;20111;-72
2022/10/27 04:35:25;;;;;;;38.67;19.63;;;8.60;99.90;;;;;;5056098;28;20040;-72
2022/10/27 04:37:55;;;;;;;39.65;18.88;;;8.60;99.90;;;;;;5056115;28;20025;-72
2022/10/27 04:40:21;;;;;;;33.05;16.90;;;8.70;99.90;;;;;;5055986;28;20124;-72
2022/10/27 04:42:47;;;;;;;38.00;18.17;;;8.80;99.90;;;;;;5055986;28;20454;-72
2022/10/27 04:45:13;;;;;;;32.90;17.63;;;8.80;99.90;;;;;;5038139;28;20467;-72
2022/10/27 04:47:39;;;;;;;33.55;18.33;;;8.70;99.90;;;;;;5055968;28;20021;-72
2022/10/27 04:50:06;;;;;;;39.67;18.52;;;8.70;99.90;;;;;;5055823;28;20036;-72
2022/10/27 04:52:32;;;;;;;51.22;26.23;;;8.70;99.90;;;;;;5055804;28;20033;-72
2022/10/27 04:54:57;;;;;;;56.00;30.13;;;8.60;99.90;;;;;;5054807;28;20036;-72
2022/10/27 04:57:23;;;;;;;88.20;48.95;;;8.60;99.90;;;;;;5055846;28;20060;-73
2022/10/27 04:59:49;;;;;;;65.63;35.92;;;8.50;99.90;;;;;;5055397;28;20037;-72
2022/10/27 05:02:15;;;;;;;46.53;25.25;;;8.50;99.90;;;;;;5055443;28;20072;-72
2022/10/27 05:04:41;;;;;;;37.70;21.30;;;8.60;99.90;;;;;;5055543;28;20111;-72
2022/10/27 05:07:07;;;;;;;37.85;21.00;;;8.60;99.90;;;;;;5055461;28;20025;-72
2022/10/27 05:09:33;;;;;;;41.47;21.58;;;8.60;99.90;;;;;;5055280;28;20029;-72
2022/10/27 05:11:59;;;;;;;45.53;23.52;;;8.60;99.90;;;;;;5055281;28;20052;-72
2022/10/27 05:14:25;;;;;;;40.95;22.35;;;8.70;99.90;;;;;;5055586;28;20040;-72
2022/10/27 05:16:50;;;;;;;64.57;32.67;;;8.70;99.90;;;;;;5048135;28;20687;-72
2022/10/27 05:19:16;;;;;;;61.63;32.42;;;8.70;99.90;;;;;;5048725;28;20098;-72
2022/10/27 05:21:42;;;;;;;58.58;27.10;;;8.70;99.90;;;;;;5049027;28;20017;-71
2022/10/27 05:24:08;;;;;;;47.35;24.55;;;8.80;99.90;;;;;;5054970;28;20375;-72
2022/10/27 05:26:34;;;;;;;48.17;22.67;;;8.90;99.90;;;;;;5055060;28;20505;-72
2022/10/27 05:29:00;;;;;;;43.83;20.67;;;9.00;99.90;;;;;;5055030;28;20020;-72
2022/10/27 05:31:26;;;;;;;47.50;22.30;;;9.00;99.90;;;;;;5055082;28;20032;-72
2022/10/27 05:33:52;;;;;;;45.55;21.65;;;8.90;99.90;;;;;;5054626;28;20387;-72
2022/10/27 05:36:17;;;;;;;45.08;21.90;;;8.80;99.90;;;;;;5054072;28;20032;-72
2022/10/27 05:38:46;;;;;;;38.28;20.52;;;8.80;99.90;;;;;;5054808;28;20025;-72
2022/10/27 05:41:12;;;;;;;48.70;22.17;;;8.80;99.90;;;;;;5053418;28;20036;-72
2022/10/27 05:43:40;;;;;;;54.00;24.10;;;8.90;99.90;;;;;;5054644;28;20474;-72
2022/10/27 05:46:06;;;;;;;41.55;21.55;;;9.10;99.90;;;;;;5054602;28;20025;-72
2022/10/27 05:48:32;;;;;;;50.85;20.92;;;9.40;99.90;;;;;;5051875;28;20045;-72
2022/10/27 05:50:58;;;;;;;49.17;20.98;;;9.60;99.90;;;;;;5052767;28;20043;-72
2022/10/27 05:53:25;;;;;;;55.22;25.30;;;9.90;99.90;;;;;;5040509;28;20060;-72
2022/10/27 05:55:53;;;;;;;44.25;20.50;;;10.30;99.90;;;;;;5053552;28;20542;-72
2022/10/27 05:58:19;;;;;;;52.60;25.02;;;10.60;99.90;;;;;;5052890;28;20033;-71
2022/10/27 06:00:49;;;;;;;65.80;29.75;;;10.80;99.90;;;;;;5053608;28;20449;-71
2022/10/27 06:03:26;;;;;;;74.80;28.60;;;11.30;99.90;;;;;;5036689;28;20501;-71
2022/10/27 06:05:53;;;;;;;57.78;26.05;;;11.70;99.90;;;;;;5052697;28;20546;-72
2022/10/27 06:08:20;;;;;;;68.88;26.85;;;12.30;99.90;;;;;;5036198;28;20033;-72
2022/10/27 06:10:46;;;;;;;56.63;27.77;;;12.50;99.90;;;;;;5054107;28;20029;-72
2022/10/27 06:13:13;;;;;;;57.30;27.08;;;13.10;99.90;;;;;;5046912;28;20029;-72
2022/10/27 06:15:41;;;;;;;63.70;27.40;;;13.60;99.90;;;;;;5054955;28;20043;-72
2022/10/27 06:18:07;;;;;;;57.28;26.77;;;14.10;99.90;;;;;;5054732;28;20029;-72
2022/10/27 06:20:33;;;;;;;60.40;29.17;;;14.40;99.90;;;;;;5051371;28;20116;-72
2022/10/27 06:22:59;;;;;;;63.28;29.42;;;15.10;99.90;;;;;;5054291;28;20467;-71
2022/10/27 06:25:25;;;;;;;55.90;27.38;;;15.10;99.70;;;;;;5052901;28;20116;-72
2022/10/27 06:27:51;;;;;;;59.45;28.70;;;15.40;98.10;;;;;;5050065;28;20025;-71
2022/10/27 06:30:17;;;;;;;49.55;26.08;;;15.90;99.10;;;;;;5052237;28;20494;-71
2022/10/27 06:32:43;;;;;;;70.60;28.83;;;16.50;95.40;;;;;;5051942;28;20021;-72
2022/10/27 06:35:10;;;;;;;71.50;26.95;;;16.60;93.00;;;;;;5052330;28;20033;-71
2022/10/27 06:37:41;;;;;;;73.32;28.02;;;16.90;91.90;;;;;;5053839;28;20087;-72
2022/10/27 06:40:09;;;;;;;63.28;28.50;;;17.10;90.90;;;;;;5053216;28;20045;-72
2022/10/27 06:42:35;;;;;;;64.60;28.55;;;16.70;92.40;;;;;;5054032;28;20033;-72
2022/10/27 06:45:03;;;;;;;62.15;29.63;;;17.40;90.60;;;;;;5054044;28;20104;-72
2022/10/27 06:47:29;;;;;;;60.97;29.30;;;17.00;90.00;;;;;;5050149;28;20017;-72
2022/10/27 06:49:54;;;;;;;69.25;31.30;;;16.50;91.20;;;;;;5052662;28;20028;-72
2022/10/27 06:52:23;;;;;;;75.95;29.63;;;16.10;92.70;;;;;;5053668;28;20562;-72
2022/10/27 06:54:49;;;;;;;84.72;32.17;;;16.10;92.40;;;;;;5053864;28;20036;-72
2022/10/27 06:57:15;;;;;;;67.78;30.35;;;15.50;93.90;;;;;;5053641;28;20033;-71
2022/10/27 06:59:41;;;;;;;72.70;30.08;;;16.50;94.30;;;;;;5053400;28;20029;-72
2022/10/27 07:02:15;;;;;;;60.80;29.52;;;17.10;92.80;;;;;;5050766;28;20047;-72
2022/10/27 07:04:41;;;;;;;59.28;29.30;;;16.30;92.50;;;;;;5053679;28;20036;-72
2022/10/27 07:07:07;;;;;;;64.45;29.23;;;15.70;95.50;;;;;;5053738;28;20120;-72
2022/10/27 07:09:33;;;;;;;63.83;30.50;;;15.60;97.00;;;;;;5054125;28;20074;-72
2022/10/27 07:11:59;;;;;;;71.78;34.08;;;16.10;95.40;;;;;;5053738;28;20029;-72
2022/10/27 07:14:24;;;;;;;67.90;30.67;;;15.90;96.20;;;;;;5042663;28;20136;-72
2022/10/27 07:16:50;;;;;;;63.58;30.70;;;16.00;96.40;;;;;;5034338;28;20037;-72
2022/10/27 07:19:16;;;;;;;61.83;31.77;;;16.60;95.40;;;;;;5046692;28;20065;-72
2022/10/27 07:21:42;;;;;;;70.10;32.97;;;17.50;92.80;;;;;;5053962;28;20024;-72
2022/10/27 07:24:08;;;;;;;71.40;33.58;;;18.00;91.90;;;;;;5057235;28;20047;-72
2022/10/27 07:26:34;;;;;;;65.32;32.63;;;17.60;91.60;;;;;;5056297;28;20029;-72
2022/10/27 07:29:00;;;;;;;63.03;29.70;;;17.50;91.00;;;;;;5056889;28;20028;-72
2022/10/27 07:31:26;;;;;;;53.63;29.60;;;17.10;92.00;;;;;;5057030;28;20044;-72
2022/10/27 07:33:51;;;;;;;75.65;33.28;;;17.00;92.20;;;;;;5056646;28;20032;-72
2022/10/27 07:36:17;;;;;;;61.25;31.20;;;17.00;93.90;;;;;;5056423;28;20033;-72
2022/10/27 07:38:43;;;;;;;66.57;32.53;;;17.30;93.40;;;;;;5056883;28;20064;-72
2022/10/27 07:41:09;;;;;;;75.57;34.20;;;17.60;92.60;;;;;;5056973;28;20064;-72
2022/10/27 07:43:35;;;;;;;67.60;33.70;;;17.80;93.80;;;;;;5057557;28;20029;-71
2022/10/27 07:46:01;;;;;;;68.43;33.55;;;17.80;93.60;;;;;;5057526;28;20040;-71
2022/10/27 07:48:27;;;;;;;71.78;33.10;;;17.90;92.20;;;;;;5055949;28;20025;-71
2022/10/27 07:50:54;;;;;;;55.47;32.88;;;17.80;91.90;;;;;;5051658;28;20047;-72
2022/10/27 07:53:20;;;;;;;57.85;32.50;;;18.00;91.60;;;;;;5041012;28;20060;-71
2022/10/27 07:55:46;;;;;;;57.35;32.38;;;18.30;92.30;;;;;;5039534;28;20051;-72
2022/10/27 07:58:14;;;;;;;59.28;31.02;;;18.50;90.50;;;;;;5054915;28;20112;-71
2022/10/27 08:00:45;;;;;;;57.65;29.15;;;18.70;91.30;;;;;;5052320;28;20041;-72
2022/10/27 08:03:19;;;;;;;55.65;28.88;;;18.80;90.30;;;;;;5056356;28;20029;-72
2022/10/27 08:05:45;;;;;;;63.92;30.42;;;19.40;90.50;;;;;;5048986;28;20364;-72
2022/10/27 08:08:13;;;;;;;54.17;25.58;;;19.70;89.60;;;;;;5056559;28;20112;-72
2022/10/27 08:10:40;;;;;;;53.10;24.90;;;20.20;86.10;;;;;;5051440;28;20033;-72
2022/10/27 08:13:07;;;;;;;47.92;25.08;;;20.70;85.90;;;;;;5048215;28;20041;-72
2022/10/27 08:15:34;;;;;;;44.63;23.33;;;21.40;81.00;;;;;;5056942;28;20021;-73
2022/10/27 08:18:02;;;;;;;45.08;22.77;;;21.70;78.60;;;;;;5047556;28;20393;-71
2022/10/27 08:20:36;;;;;;;38.30;21.52;;;22.00;76.10;;;;;;5042833;28;20018;-72
2022/10/27 08:23:04;;;;;;;45.42;23.35;;;21.90;75.90;;;;;;5040106;28;20021;-73
2022/10/27 08:25:31;;;;;;;43.83;22.95;;;22.00;73.30;;;;;;5056673;28;20045;-72
2022/10/27 08:27:57;;;;;;;40.00;23.85;;;22.80;71.90;;;;;;5056326;28;20032;-72
2022/10/27 08:30:25;;;;;;;46.13;23.50;;;23.20;69.70;;;;;;5040258;28;20029;-72
2022/10/27 08:32:56;;;;;;;35.85;20.73;;;23.50;69.80;;;;;;5044354;28;20049;-72
2022/10/27 08:35:22;;;;;;;33.50;20.10;;;23.80;66.60;;;;;;5055867;28;20029;-72
2022/10/27 08:37:48;;;;;;;44.38;21.30;;;24.30;65.80;;;;;;5055568;28;20498;-72
2022/10/27 08:40:14;;;;;;;38.22;21.20;;;24.50;63.60;;;;;;5055424;28;20123;-73
2022/10/27 08:42:46;;;;;;;38.63;21.95;;;24.30;64.80;;;;;;5043707;28;20128;-73
2022/10/27 08:45:17;;;;;;;46.20;23.77;;;24.30;64.60;;;;;;5051635;28;20014;-72
2022/10/27 08:47:44;;;;;;;41.85;22.73;;;24.00;63.30;;;;;;5053045;28;20490;-72
2022/10/27 08:50:13;;;;;;;38.80;20.63;;;24.30;63.80;;;;;;5054986;28;20048;-72
2022/10/27 08:52:53;;;;;;;34.75;19.15;;;24.50;62.80;;;;;;5054747;28;20029;-72
2022/10/27 08:55:21;;;;;;;45.17;23.17;;;24.70;61.80;;;;;;5053190;28;20114;-73
2022/10/27 08:58:09;;;;;;;37.22;20.52;;;25.30;60.00;;;;;;5045267;28;20490;-73
2022/10/27 09:01:01;;;;;;;35.10;19.92;;;25.10;59.40;;;;;;5030589;28;20041;-72
2022/10/27 09:03:36;;;;;;;32.30;19.95;;;25.80;59.10;;;;;;5037475;28;20111;-73
2022/10/27 09:06:23;;;;;;;49.15;21.60;;;26.40;58.40;;;;;;5065089;28;20021;-73
2022/10/27 09:09:31;;;;;;;48.03;21.27;;;26.70;56.30;;;;;;5064977;28;20442;-73
2022/10/27 09:12:25;;;;;;;43.50;20.10;;;26.70;55.50;;;;;;5060632;28;20025;-73
2022/10/27 09:15:06;;;;;;;49.63;28.88;;;26.90;54.80;;;;;;5053452;28;20029;-73
2022/10/27 09:17:42;;;;;;;40.00;20.00;;;27.20;54.70;;;;;;5044908;28;20028;-75
2022/10/27 09:20:20;;;;;;;41.10;19.15;;;27.00;53.40;;;;;;5047176;28;20112;-73
2022/10/27 09:22:49;;;;;;;33.90;17.95;;;27.10;54.40;;;;;;5049345;28;20025;-72
2022/10/27 09:25:20;;;;;;;40.05;19.58;;;27.30;53.80;;;;;;5058922;28;20028;-72
2022/10/27 09:27:52;;;;;;;33.03;19.17;;;27.70;53.90;;;;;;5064438;28;20052;-72
2022/10/27 09:30:18;;;;;;;38.33;19.83;;;28.20;51.60;;;;;;5057470;28;20029;-72
2022/10/27 09:32:53;;;;;;;39.78;19.45;;;28.20;51.10;;;;;;5055540;28;20382;-72
2022/10/27 09:35:25;;;;;;;33.25;17.73;;;27.50;51.80;;;;;;5067543;28;20028;-72
2022/10/27 09:37:52;;;;;;;42.17;19.05;;;27.70;52.20;;;;;;5067780;28;20064;-72
2022/10/27 09:40:20;;;;;;;33.42;17.13;;;27.80;50.80;;;;;;5054182;28;20033;-72
2022/10/27 09:42:49;;;;;;;39.55;17.67;;;28.30;51.00;;;;;;5053903;28;20074;-72
2022/10/27 09:45:26;;;;;;;41.72;19.25;;;28.00;50.40;;;;;;5051870;28;20104;-72
2022/10/27 09:48:19;;;;;;;35.00;17.23;;;27.90;51.60;;;;;;5053245;28;20085;-72
2022/10/27 09:51:12;;;;;;;32.08;16.00;;;27.10;52.30;;;;;;5049871;28;20053;-72
2022/10/27 09:53:46;;;;;;;43.53;18.23;;;27.80;51.90;;;;;;5054791;28;20052;-72
2022/10/27 09:56:17;;;;;;;39.97;16.55;;;27.30;51.40;;;;;;5055032;28;20100;-73
2022/10/27 09:58:48;;;;;;;38.95;16.55;;;27.90;50.80;;;;;;5054791;28;20159;-73
2022/10/27 10:01:17;;;;;;;31.45;17.85;;;28.10;51.00;;;;;;5060925;28;20094;-73
2022/10/27 10:04:15;;;;;;;42.95;16.90;;;27.70;50.90;;;;;;5063828;28;20070;-74
2022/10/27 10:06:41;;;;;;;37.45;16.75;;;27.80;51.40;;;;;;5050676;28;20037;-73
2022/10/27 10:09:20;;;;;;;35.00;16.40;;;28.00;51.20;;;;;;5066813;28;20103;-72
2022/10/27 10:11:46;;;;;;;30.48;15.27;;;28.30;50.00;;;;;;5036502;28;20052;-72
2022/10/27 10:14:23;;;;;;;38.88;17.17;;;28.00;50.50;;;;;;5054482;28;20037;-73
2022/10/27 10:16:54;;;;;;;33.60;14.73;;;27.80;50.80;;;;;;5053953;28;20057;-73
2022/10/27 10:19:22;;;;;;;26.40;14.20;;;28.10;51.10;;;;;;5054000;28;20115;-73
2022/10/27 10:21:50;;;;;;;36.92;15.75;;;28.70;51.20;;;;;;5054155;28;20021;-73
2022/10/27 10:24:19;;;;;;;22.67;12.90;;;28.80;49.40;;;;;;5055803;28;20025;-73
2022/10/27 10:26:52;;;;;;;30.80;13.80;;;28.40;48.80;;;;;;5053985;28;20100;-72
2022/10/27 10:29:54;;;;;;;22.67;13.85;;;28.90;49.10;;;;;;5053845;28;20052;-72
2022/10/27 10:32:30;;;;;;;34.80;15.18;;;28.50;49.30;;;;;;4991101;28;20031;-73
2022/10/27 10:34:59;;;;;;;27.52;15.23;;;28.80;49.50;;;;;;4991570;28;20460;-72
2022/10/27 10:37:36;;;;;;;32.15;13.65;;;28.30;49.80;;;;;;4989996;28;20045;-72
2022/10/27 10:40:17;;;;;;;33.25;14.88;;;28.60;50.10;;;;;;4988620;28;20039;-72
2022/10/27 10:42:48;;;;;;;26.05;15.38;;;29.30;48.60;;;;;;4992278;28;20065;-72
2022/10/27 10:45:20;;;;;;;32.88;15.10;;;29.10;47.80;;;;;;4992314;28;20034;-72
2022/10/27 10:47:50;;;;;;;31.77;15.15;;;29.40;48.00;;;;;;4996705;28;20178;-71
2022/10/27 10:50:16;;;;;;;32.38;15.00;;;29.70;47.00;;;;;;5007851;28;20049;-72
2022/10/27 10:52:49;;;;;;;34.60;17.33;;;29.60;46.50;;;;;;4997829;28;20440;-72
2022/10/27 10:55:36;;;;;;;37.35;18.73;;;29.40;46.50;;;;;;4995679;28;20046;-71
2022/10/27 10:58:02;;;;;;;38.53;18.90;;;29.30;47.70;;;;;;4996305;28;20444;-72
2022/10/27 11:00:28;;;;;;;35.05;20.65;;;29.40;47.80;;;;;;4994852;28;20081;-71
2022/10/27 11:03:00;;;;;;;65.70;29.67;;;29.40;46.30;;;;;;4995890;28;20034;-71
2022/10/27 11:05:34;;;;;;;72.20;32.60;;;28.60;48.30;;;;;;5003992;28;20450;-71
2022/10/27 11:08:03;;;;;;;87.68;35.75;;;29.00;49.10;;;;;;5056771;28;20024;-71
2022/10/27 11:10:37;;;;;;;73.53;30.83;;;29.70;48.80;;;;;;5057366;28;20074;-72
2022/10/27 11:13:15;;;;;;;55.38;23.70;;;29.80;44.90;;;;;;5056544;28;20037;-72
2022/10/27 11:15:43;;;;;;;52.97;22.83;;;29.90;45.20;;;;;;5057678;28;20167;-72
2022/10/27 11:18:20;;;;;;;80.75;32.05;;;30.20;45.20;;;;;;5060241;28;20190;-73
2022/10/27 11:21:02;;;;;;;80.90;32.85;;;30.30;45.50;;;;;;5054263;28;20033;-73
2022/10/27 11:23:50;;;;;;;56.25;24.23;;;30.60;45.50;;;;;;5058240;28;20036;-73
2022/10/27 11:26:39;;;;;;;64.32;24.90;;;30.70;42.60;;;;;;5058104;28;20398;-73
2022/10/27 11:29:27;;;;;;;70.03;22.92;;;30.00;42.30;;;;;;5058737;28;20371;-73
2022/10/27 11:32:19;;;;;;;56.20;21.52;;;28.50;45.10;;;;;;5057017;28;20548;-73
2022/10/27 11:35:02;;;;;;;48.58;19.55;;;29.50;44.20;;;;;;5042543;28;20024;-72
2022/10/27 11:37:44;;;;;;;44.55;19.55;;;30.10;43.30;;;;;;5056903;28;20017;-72
2022/10/27 11:40:21;;;;;;;37.58;16.05;;;30.40;43.10;;;;;;5056268;28;20064;-72
2022/10/27 11:43:29;;;;;;;39.25;18.67;;;29.80;42.30;;;;;;5041749;28;20021;-71
2022/10/27 11:46:06;;;;;;;40.78;19.67;;;30.20;42.90;;;;;;4988925;28;20051;-72
2022/10/27 11:48:58;;;;;;;24.75;12.70;;;30.30;41.70;;;;;;5037116;28;20017;-71
2022/10/27 11:51:35;;;;;;;16.48;9.00;;;30.60;40.10;;;;;;5036907;28;20038;-72
2022/10/27 11:54:04;;;;;;;26.77;11.48;;;29.80;41.00;;;;;;5041424;28;20033;-72
2022/10/27 11:56:51;;;;;;;19.88;10.38;;;30.30;40.60;;;;;;5056891;28;20123;-72
2022/10/27 11:59:43;;;;;;;27.48;13.85;;;30.40;40.60;;;;;;5038779;28;20433;-73
2022/10/27 12:02:27;;;;;;;26.63;14.38;;;30.10;40.30;;;;;;5056791;28;20052;-72
2022/10/27 12:05:06;;;;;;;52.28;21.05;;;30.10;40.80;;;;;;5049668;28;20110;-72
2022/10/27 12:07:51;;;;;;;105.55;47.72;;;30.40;41.60;;;;;;5055592;28;20029;-72
2022/10/27 12:10:29;;;;;;;43.00;18.67;;;30.30;41.70;;;;;;5053635;28;20024;-72
2022/10/27 12:13:03;;;;;;;34.75;15.43;;;29.40;42.00;;;;;;5055992;28;20521;-73
2022/10/27 12:15:43;;;;;;;39.67;17.13;;;29.40;42.60;;;;;;5055966;28;20360;-72
2022/10/27 12:18:31;;;;;;;33.35;14.70;;;30.10;42.20;;;;;;5052467;28;20040;-71
2022/10/27 12:21:08;;;;;;;45.70;20.55;;;30.30;42.60;;;;;;5043627;28;20036;-72
2022/10/27 12:23:52;;;;;;;34.50;14.80;;;30.30;40.70;;;;;;5053877;28;20025;-72
2022/10/27 12:26:45;;;;;;;32.40;14.88;;;30.30;40.90;;;;;;5054540;28;20021;-72
2022/10/27 12:29:12;;;;;;;38.47;14.25;;;30.50;41.30;;;;;;5044708;28;20053;-72
2022/10/27 12:31:45;;;;;;;31.83;13.88;;;30.70;39.80;;;;;;5055196;28;20133;-72
2022/10/27 12:34:14;;;;;;;30.88;12.43;;;30.20;40.00;;;;;;5056778;28;20025;-72
2022/10/27 12:36:39;;;;;;;25.52;11.57;;;30.60;40.10;;;;;;5058114;28;20041;-72
2022/10/27 12:39:30;;;;;;;29.20;13.05;;;30.40;39.60;;;;;;5062046;28;20041;-72
2022/10/27 12:42:22;;;;;;;30.88;12.25;;;30.60;40.30;;;;;;5050493;28;20034;-70
2022/10/27 12:44:54;;;;;;;32.80;12.57;;;30.70;38.90;;;;;;5034154;28;20068;-72
2022/10/27 12:47:40;;;;;;;29.30;12.05;;;30.20;39.20;;;;;;5053019;28;20044;-72
2022/10/27 12:50:43;;;;;;;24.83;12.55;;;29.50;41.50;;;;;;5055225;28;20032;-72
2022/10/27 12:53:27;;;;;;;28.63;13.27;;;29.70;40.90;;;;;;5012505;28;20068;-71